sensor_id;sensor_type;location;lat;lon;timestamp;temperature;humidity
67186;HTU21D;54116;53.518;49.398;2023-05-07T00:00:22;-10.56;118.99
67186;HTU21D;54116;53.518;49.398;2023-05-07T00:02:48;-10.64;118.99
67186;HTU21D;54116;53.518;49.398;2023-05-07T00:05:15;-10.66;118.99
67186;HTU21D;54116;53.518;49.398;2023-05-07T00:07:41;-10.73;118.99
67186;HTU21D;54116;53.518;49.398;2023-05-07T00:10:09;-10.73;118.99
67186;HTU21D;54116;53.518;49.398;2023-05-07T00:12:36;-10.77;118.99
67186;HTU21D;54116;53.518;49.398;2023-05-07T00:15:02;-10.79;118.99
67186;HTU21D;54116;53.518;49.398;2023-05-07T00:17:30;-10.81;118.99
67186;HTU21D;54116;53.518;49.398;2023-05-07T00:19:57;-10.86;118.99
67186;HTU21D;54116;53.518;49.398;2023-05-07T00:22:23;-10.88;118.99
67186;HTU21D;54116;53.518;49.398;2023-05-07T00:24:49;-10.89;118.99
67186;HTU21D;54116;53.518;49.398;2023-05-07T00:27:15;-10.93;118.99
67186;HTU21D;54116;53.518;49.398;2023-05-07T00:29:41;-10.95;118.99
67186;HTU21D;54116;53.518;49.398;2023-05-07T00:32:07;-11.01;118.99
67186;HTU21D;54116;53.518;49.398;2023-05-07T00:34:33;-11.04;118.99
67186;HTU21D;54116;53.518;49.398;2023-05-07T00:37:01;-11.07;118.99
67186;HTU21D;54116;53.518;49.398;2023-05-07T00:39:27;-11.08;118.99
67186;HTU21D;54116;53.518;49.398;2023-05-07T00:41:53;-11.10;118.99
67186;HTU21D;54116;53.518;49.398;2023-05-07T00:44:19;-11.14;118.99
67186;HTU21D;54116;53.518;49.398;2023-05-07T00:46:45;-11.16;118.99
67186;HTU21D;54116;53.518;49.398;2023-05-07T00:49:14;-11.21;118.99
67186;HTU21D;54116;53.518;49.398;2023-05-07T00:51:40;-11.21;118.99
67186;HTU21D;54116;53.518;49.398;2023-05-07T00:54:06;-11.23;118.99
67186;HTU21D;54116;53.518;49.398;2023-05-07T00:56:34;-11.15;118.99
67186;HTU21D;54116;53.518;49.398;2023-05-07T00:59:01;-11.12;118.99
67186;HTU21D;54116;53.518;49.398;2023-05-07T01:01:28;-11.12;118.99
67186;HTU21D;54116;53.518;49.398;2023-05-07T01:03:54;-11.10;118.99
67186;HTU21D;54116;53.518;49.398;2023-05-07T01:06:22;-11.19;118.99
67186;HTU21D;54116;53.518;49.398;2023-05-07T01:08:49;-11.20;118.99
67186;HTU21D;54116;53.518;49.398;2023-05-07T01:11:17;-11.22;118.99
67186;HTU21D;54116;53.518;49.398;2023-05-07T01:13:45;-11.27;118.99
67186;HTU21D;54116;53.518;49.398;2023-05-07T01:16:13;-11.33;118.99
67186;HTU21D;54116;53.518;49.398;2023-05-07T01:18:38;-11.36;118.99
67186;HTU21D;54116;53.518;49.398;2023-05-07T01:21:05;-11.39;118.99
67186;HTU21D;54116;53.518;49.398;2023-05-07T01:23:31;-11.40;118.99
67186;HTU21D;54116;53.518;49.398;2023-05-07T01:25:58;-11.35;118.99
67186;HTU21D;54116;53.518;49.398;2023-05-07T01:28:25;-11.32;118.99
67186;HTU21D;54116;53.518;49.398;2023-05-07T01:30:54;-11.29;118.99
67186;HTU21D;54116;53.518;49.398;2023-05-07T01:33:23;-11.21;118.99
67186;HTU21D;54116;53.518;49.398;2023-05-07T01:35:53;-11.25;118.99
67186;HTU21D;54116;53.518;49.398;2023-05-07T01:38:20;-11.19;118.99
67186;HTU21D;54116;53.518;49.398;2023-05-07T01:40:47;-11.15;118.99
67186;HTU21D;54116;53.518;49.398;2023-05-07T01:43:13;-11.10;118.99
67186;HTU21D;54116;53.518;49.398;2023-05-07T01:45:40;-11.05;118.99
67186;HTU21D;54116;53.518;49.398;2023-05-07T01:48:07;-11.04;118.99
67186;HTU21D;54116;53.518;49.398;2023-05-07T01:50:34;-11.03;118.99
67186;HTU21D;54116;53.518;49.398;2023-05-07T01:53:01;-10.97;118.99
67186;HTU21D;54116;53.518;49.398;2023-05-07T01:55:28;-10.95;118.99
67186;HTU21D;54116;53.518;49.398;2023-05-07T01:57:54;-10.90;118.99
67186;HTU21D;54116;53.518;49.398;2023-05-07T02:00:20;-10.82;118.99
67186;HTU21D;54116;53.518;49.398;2023-05-07T02:02:46;-10.73;118.99
67186;HTU21D;54116;53.518;49.398;2023-05-07T02:05:12;-10.65;118.99
67186;HTU21D;54116;53.518;49.398;2023-05-07T02:07:38;-10.56;118.99
67186;HTU21D;54116;53.518;49.398;2023-05-07T02:10:05;-10.49;118.99
67186;HTU21D;54116;53.518;49.398;2023-05-07T02:12:31;-10.38;118.99
67186;HTU21D;54116;53.518;49.398;2023-05-07T02:14:57;-10.33;118.99
67186;HTU21D;54116;53.518;49.398;2023-05-07T02:17:23;-10.25;118.99
67186;HTU21D;54116;53.518;49.398;2023-05-07T02:19:49;-10.17;118.99
67186;HTU21D;54116;53.518;49.398;2023-05-07T02:22:15;-10.05;118.99
67186;HTU21D;54116;53.518;49.398;2023-05-07T02:24:41;-9.51;118.99
67186;HTU21D;54116;53.518;49.398;2023-05-07T02:27:07;-7.66;118.99
67186;HTU21D;54116;53.518;49.398;2023-05-07T02:29:33;-6.42;118.99
67186;HTU21D;54116;53.518;49.398;2023-05-07T02:31:59;-6.73;118.99
67186;HTU21D;54116;53.518;49.398;2023-05-07T02:34:26;-7.17;118.99
67186;HTU21D;54116;53.518;49.398;2023-05-07T02:36:52;-7.05;118.99
67186;HTU21D;54116;53.518;49.398;2023-05-07T02:39:18;-7.17;118.99
67186;HTU21D;54116;53.518;49.398;2023-05-07T02:41:44;-7.93;118.99
67186;HTU21D;54116;53.518;49.398;2023-05-07T02:44:10;-8.58;118.99
67186;HTU21D;54116;53.518;49.398;2023-05-07T02:46:37;-9.10;118.99
67186;HTU21D;54116;53.518;49.398;2023-05-07T02:49:03;-9.26;118.99
67186;HTU21D;54116;53.518;49.398;2023-05-07T02:51:30;-9.33;118.99
67186;HTU21D;54116;53.518;49.398;2023-05-07T02:53:56;-9.37;118.99
67186;HTU21D;54116;53.518;49.398;2023-05-07T02:56:22;-9.42;118.99
67186;HTU21D;54116;53.518;49.398;2023-05-07T02:58:49;-9.17;118.99
67186;HTU21D;54116;53.518;49.398;2023-05-07T03:01:15;-9.18;118.99
67186;HTU21D;54116;53.518;49.398;2023-05-07T03:03:41;-9.18;118.99
67186;HTU21D;54116;53.518;49.398;2023-05-07T03:06:07;-9.07;118.99
67186;HTU21D;54116;53.518;49.398;2023-05-07T03:08:33;-8.92;118.99
67186;HTU21D;54116;53.518;49.398;2023-05-07T03:10:59;-9.01;118.99
67186;HTU21D;54116;53.518;49.398;2023-05-07T03:13:25;-8.95;118.99
67186;HTU21D;54116;53.518;49.398;2023-05-07T03:15:51;-8.95;118.99
67186;HTU21D;54116;53.518;49.398;2023-05-07T03:18:18;-8.39;118.99
67186;HTU21D;54116;53.518;49.398;2023-05-07T03:20:43;-8.22;118.99
67186;HTU21D;54116;53.518;49.398;2023-05-07T03:23:09;-8.34;118.99
67186;HTU21D;54116;53.518;49.398;2023-05-07T03:25:35;-7.74;118.99
67186;HTU21D;54116;53.518;49.398;2023-05-07T03:28:01;-7.00;118.99
67186;HTU21D;54116;53.518;49.398;2023-05-07T03:30:28;-5.69;118.99
67186;HTU21D;54116;53.518;49.398;2023-05-07T03:32:54;-5.03;118.99
67186;HTU21D;54116;53.518;49.398;2023-05-07T03:35:20;-3.83;118.99
67186;HTU21D;54116;53.518;49.398;2023-05-07T03:37:46;-3.04;118.99
67186;HTU21D;54116;53.518;49.398;2023-05-07T03:40:12;-2.58;118.99
67186;HTU21D;54116;53.518;49.398;2023-05-07T03:42:38;-1.97;118.99
67186;HTU21D;54116;53.518;49.398;2023-05-07T03:45:05;-2.02;118.99
67186;HTU21D;54116;53.518;49.398;2023-05-07T03:47:31;-2.17;118.99
67186;HTU21D;54116;53.518;49.398;2023-05-07T03:49:57;-2.06;118.99
67186;HTU21D;54116;53.518;49.398;2023-05-07T03:52:24;-1.83;118.99
67186;HTU21D;54116;53.518;49.398;2023-05-07T03:54:52;-1.76;118.99
67186;HTU21D;54116;53.518;49.398;2023-05-07T03:57:20;-2.03;118.99
67186;HTU21D;54116;53.518;49.398;2023-05-07T03:59:46;-2.07;118.99
67186;HTU21D;54116;53.518;49.398;2023-05-07T04:02:12;-2.48;118.99
67186;HTU21D;54116;53.518;49.398;2023-05-07T04:04:38;-2.50;118.99
67186;HTU21D;54116;53.518;49.398;2023-05-07T04:07:04;-2.06;118.99
67186;HTU21D;54116;53.518;49.398;2023-05-07T04:09:30;-2.04;118.99
67186;HTU21D;54116;53.518;49.398;2023-05-07T04:11:57;-1.84;118.99
67186;HTU21D;54116;53.518;49.398;2023-05-07T04:14:23;-1.73;118.99
67186;HTU21D;54116;53.518;49.398;2023-05-07T04:16:49;-1.77;118.99
67186;HTU21D;54116;53.518;49.398;2023-05-07T04:19:15;-1.39;118.99
67186;HTU21D;54116;53.518;49.398;2023-05-07T04:21:41;-1.42;118.99
67186;HTU21D;54116;53.518;49.398;2023-05-07T04:24:07;-1.25;118.99
67186;HTU21D;54116;53.518;49.398;2023-05-07T04:26:33;-1.14;118.99
67186;HTU21D;54116;53.518;49.398;2023-05-07T04:28:59;-1.24;118.99
67186;HTU21D;54116;53.518;49.398;2023-05-07T04:31:25;-1.24;118.99
67186;HTU21D;54116;53.518;49.398;2023-05-07T04:33:52;-1.61;118.99
67186;HTU21D;54116;53.518;49.398;2023-05-07T04:36:18;-0.96;118.99
67186;HTU21D;54116;53.518;49.398;2023-05-07T04:38:46;-1.39;118.99
67186;HTU21D;54116;53.518;49.398;2023-05-07T04:41:12;-2.35;118.99
67186;HTU21D;54116;53.518;49.398;2023-05-07T04:43:39;-3.58;118.99
67186;HTU21D;54116;53.518;49.398;2023-05-07T04:46:05;-4.55;118.99
67186;HTU21D;54116;53.518;49.398;2023-05-07T04:48:31;-4.69;118.99
67186;HTU21D;54116;53.518;49.398;2023-05-07T04:50:58;-3.00;118.99
67186;HTU21D;54116;53.518;49.398;2023-05-07T04:53:24;-1.91;118.99
67186;HTU21D;54116;53.518;49.398;2023-05-07T04:55:55;-2.01;118.99
67186;HTU21D;54116;53.518;49.398;2023-05-07T04:58:22;-2.57;118.99
67186;HTU21D;54116;53.518;49.398;2023-05-07T05:00:49;-2.67;118.99
67186;HTU21D;54116;53.518;49.398;2023-05-07T05:03:15;-2.41;118.99
67186;HTU21D;54116;53.518;49.398;2023-05-07T05:05:41;-2.04;118.99
67186;HTU21D;54116;53.518;49.398;2023-05-07T05:08:07;-2.43;118.99
67186;HTU21D;54116;53.518;49.398;2023-05-07T05:10:33;-2.64;118.99
67186;HTU21D;54116;53.518;49.398;2023-05-07T05:13:00;-2.49;118.99
67186;HTU21D;54116;53.518;49.398;2023-05-07T05:15:26;-2.33;118.99
67186;HTU21D;54116;53.518;49.398;2023-05-07T05:17:52;-2.68;118.99
67186;HTU21D;54116;53.518;49.398;2023-05-07T05:20:18;-2.92;118.99
67186;HTU21D;54116;53.518;49.398;2023-05-07T05:22:44;-3.04;118.99
67186;HTU21D;54116;53.518;49.398;2023-05-07T05:25:10;-3.07;118.99
67186;HTU21D;54116;53.518;49.398;2023-05-07T05:27:36;-2.62;118.99
67186;HTU21D;54116;53.518;49.398;2023-05-07T05:30:03;-2.63;118.99
67186;HTU21D;54116;53.518;49.398;2023-05-07T05:32:29;-2.89;118.99
67186;HTU21D;54116;53.518;49.398;2023-05-07T05:34:55;-3.19;118.99
67186;HTU21D;54116;53.518;49.398;2023-05-07T05:37:21;-3.71;118.99
67186;HTU21D;54116;53.518;49.398;2023-05-07T05:39:47;-3.47;118.99
67186;HTU21D;54116;53.518;49.398;2023-05-07T05:42:13;-3.51;118.99
67186;HTU21D;54116;53.518;49.398;2023-05-07T05:44:40;-3.94;118.99
67186;HTU21D;54116;53.518;49.398;2023-05-07T05:47:06;-4.25;118.99
67186;HTU21D;54116;53.518;49.398;2023-05-07T05:49:32;-5.47;118.99
67186;HTU21D;54116;53.518;49.398;2023-05-07T05:52:01;-4.58;118.99
67186;HTU21D;54116;53.518;49.398;2023-05-07T05:54:27;-3.99;118.99
67186;HTU21D;54116;53.518;49.398;2023-05-07T05:56:53;-4.88;118.99
67186;HTU21D;54116;53.518;49.398;2023-05-07T05:59:19;-5.98;118.99
67186;HTU21D;54116;53.518;49.398;2023-05-07T06:01:46;-5.85;118.99
67186;HTU21D;54116;53.518;49.398;2023-05-07T06:04:13;-4.79;118.99
67186;HTU21D;54116;53.518;49.398;2023-05-07T06:06:39;-4.44;118.99
67186;HTU21D;54116;53.518;49.398;2023-05-07T06:09:05;-4.52;118.99
67186;HTU21D;54116;53.518;49.398;2023-05-07T06:11:31;-4.24;118.99
67186;HTU21D;54116;53.518;49.398;2023-05-07T06:13:58;-4.37;118.99
67186;HTU21D;54116;53.518;49.398;2023-05-07T06:16:27;-4.20;118.99
67186;HTU21D;54116;53.518;49.398;2023-05-07T06:18:54;-4.25;118.99
67186;HTU21D;54116;53.518;49.398;2023-05-07T06:21:21;-4.83;118.99
67186;HTU21D;54116;53.518;49.398;2023-05-07T06:23:47;-4.89;118.99
67186;HTU21D;54116;53.518;49.398;2023-05-07T06:26:13;-4.80;118.99
67186;HTU21D;54116;53.518;49.398;2023-05-07T06:28:39;-4.78;118.99
67186;HTU21D;54116;53.518;49.398;2023-05-07T06:31:29;-5.05;118.99
67186;HTU21D;54116;53.518;49.398;2023-05-07T06:33:56;-5.72;118.99
67186;HTU21D;54116;53.518;49.398;2023-05-07T06:36:22;-6.33;118.99
67186;HTU21D;54116;53.518;49.398;2023-05-07T06:38:48;-6.38;118.99
67186;HTU21D;54116;53.518;49.398;2023-05-07T06:41:14;-5.93;118.99
67186;HTU21D;54116;53.518;49.398;2023-05-07T06:43:58;-5.99;118.99
67186;HTU21D;54116;53.518;49.398;2023-05-07T06:46:25;-5.64;118.99
67186;HTU21D;54116;53.518;49.398;2023-05-07T06:48:51;-5.38;118.99
67186;HTU21D;54116;53.518;49.398;2023-05-07T06:51:18;-5.24;118.99
67186;HTU21D;54116;53.518;49.398;2023-05-07T06:53:44;-5.15;118.99
67186;HTU21D;54116;53.518;49.398;2023-05-07T06:56:11;-5.12;118.99
67186;HTU21D;54116;53.518;49.398;2023-05-07T06:58:55;-5.02;118.99
67186;HTU21D;54116;53.518;49.398;2023-05-07T07:01:21;-5.35;118.99
67186;HTU21D;54116;53.518;49.398;2023-05-07T07:04:06;-5.65;118.99
67186;HTU21D;54116;53.518;49.398;2023-05-07T07:06:32;-5.89;118.99
67186;HTU21D;54116;53.518;49.398;2023-05-07T07:08:59;-6.18;118.99
67186;HTU21D;54116;53.518;49.398;2023-05-07T07:11:25;-5.91;118.99
67186;HTU21D;54116;53.518;49.398;2023-05-07T07:13:51;-5.81;118.99
67186;HTU21D;54116;53.518;49.398;2023-05-07T07:16:18;-6.24;118.99
67186;HTU21D;54116;53.518;49.398;2023-05-07T07:18:44;-6.17;118.99
67186;HTU21D;54116;53.518;49.398;2023-05-07T07:21:10;-6.38;118.99
67186;HTU21D;54116;53.518;49.398;2023-05-07T07:23:37;-6.32;118.99
67186;HTU21D;54116;53.518;49.398;2023-05-07T07:26:22;-6.19;118.99
67186;HTU21D;54116;53.518;49.398;2023-05-07T07:28:48;-6.21;118.99
67186;HTU21D;54116;53.518;49.398;2023-05-07T07:33:59;-6.31;118.99
67186;HTU21D;54116;53.518;49.398;2023-05-07T07:36:25;-6.20;118.99
67186;HTU21D;54116;53.518;49.398;2023-05-07T07:38:53;-5.96;118.99
67186;HTU21D;54116;53.518;49.398;2023-05-07T07:41:19;-6.47;118.99
67186;HTU21D;54116;53.518;49.398;2023-05-07T07:43:45;-6.61;118.99
67186;HTU21D;54116;53.518;49.398;2023-05-07T07:49:16;-6.36;118.99
67186;HTU21D;54116;53.518;49.398;2023-05-07T07:51:42;-6.18;118.99
67186;HTU21D;54116;53.518;49.398;2023-05-07T07:54:08;-5.99;118.99
67186;HTU21D;54116;53.518;49.398;2023-05-07T07:56:35;-6.02;118.99
67186;HTU21D;54116;53.518;49.398;2023-05-07T07:59:01;-6.18;118.99
67186;HTU21D;54116;53.518;49.398;2023-05-07T08:01:33;-5.92;118.99
67186;HTU21D;54116;53.518;49.398;2023-05-07T08:04:00;-5.78;118.99
67186;HTU21D;54116;53.518;49.398;2023-05-07T08:09:13;-5.96;118.99
67186;HTU21D;54116;53.518;49.398;2023-05-07T08:11:39;-6.11;118.99
67186;HTU21D;54116;53.518;49.398;2023-05-07T08:14:05;-6.11;118.99
67186;HTU21D;54116;53.518;49.398;2023-05-07T08:16:31;-5.90;118.99
67186;HTU21D;54116;53.518;49.398;2023-05-07T08:18:58;-5.72;118.99
67186;HTU21D;54116;53.518;49.398;2023-05-07T08:21:24;-6.21;118.99
67186;HTU21D;54116;53.518;49.398;2023-05-07T08:23:50;-6.38;118.99
67186;HTU21D;54116;53.518;49.398;2023-05-07T08:26:16;-6.38;118.99
67186;HTU21D;54116;53.518;49.398;2023-05-07T08:28:42;-6.02;118.99
67186;HTU21D;54116;53.518;49.398;2023-05-07T08:31:09;-5.62;118.99
67186;HTU21D;54116;53.518;49.398;2023-05-07T08:33:36;-5.55;118.99
67186;HTU21D;54116;53.518;49.398;2023-05-07T08:36:03;-5.74;118.99
67186;HTU21D;54116;53.518;49.398;2023-05-07T08:38:30;-5.68;118.99
67186;HTU21D;54116;53.518;49.398;2023-05-07T08:40:57;-5.68;118.99
67186;HTU21D;54116;53.518;49.398;2023-05-07T08:43:26;-5.47;118.99
67186;HTU21D;54116;53.518;49.398;2023-05-07T08:45:54;-5.38;118.99
67186;HTU21D;54116;53.518;49.398;2023-05-07T08:48:25;-5.62;118.99
67186;HTU21D;54116;53.518;49.398;2023-05-07T08:50:53;-5.46;118.99
67186;HTU21D;54116;53.518;49.398;2023-05-07T08:53:20;-5.35;118.99
67186;HTU21D;54116;53.518;49.398;2023-05-07T08:55:47;-5.20;118.99
67186;HTU21D;54116;53.518;49.398;2023-05-07T08:58:13;-5.02;118.99
67186;HTU21D;54116;53.518;49.398;2023-05-07T09:00:40;-4.90;118.99
67186;HTU21D;54116;53.518;49.398;2023-05-07T09:03:07;-4.75;118.99
67186;HTU21D;54116;53.518;49.398;2023-05-07T09:05:33;-5.15;118.99
67186;HTU21D;54116;53.518;49.398;2023-05-07T09:08:01;-5.18;118.99
67186;HTU21D;54116;53.518;49.398;2023-05-07T09:10:29;-4.97;118.99
67186;HTU21D;54116;53.518;49.398;2023-05-07T09:15:40;-4.75;118.99
67186;HTU21D;54116;53.518;49.398;2023-05-07T09:18:06;-4.68;118.99
67186;HTU21D;54116;53.518;49.398;2023-05-07T09:20:32;-5.24;118.99
67186;HTU21D;54116;53.518;49.398;2023-05-07T09:22:58;-5.77;118.99
67186;HTU21D;54116;53.518;49.398;2023-05-07T09:25:32;-5.84;118.99
67186;HTU21D;54116;53.518;49.398;2023-05-07T09:31:02;-6.51;118.99
67186;HTU21D;54116;53.518;49.398;2023-05-07T09:33:34;-6.05;118.99
67186;HTU21D;54116;53.518;49.398;2023-05-07T09:36:05;-5.65;118.99
67186;HTU21D;54116;53.518;49.398;2023-05-07T09:38:34;-5.33;118.99
67186;HTU21D;54116;53.518;49.398;2023-05-07T09:41:13;-5.09;118.99
67186;HTU21D;54116;53.518;49.398;2023-05-07T09:43:39;-5.41;118.99
67186;HTU21D;54116;53.518;49.398;2023-05-07T09:46:15;-5.18;118.99
67186;HTU21D;54116;53.518;49.398;2023-05-07T09:48:43;-5.68;118.99
67186;HTU21D;54116;53.518;49.398;2023-05-07T09:51:18;-5.82;118.99
67186;HTU21D;54116;53.518;49.398;2023-05-07T09:53:50;-5.96;118.99
67186;HTU21D;54116;53.518;49.398;2023-05-07T09:59:03;-6.41;118.99
67186;HTU21D;54116;53.518;49.398;2023-05-07T10:01:37;-6.21;118.99
67186;HTU21D;54116;53.518;49.398;2023-05-07T10:04:05;-5.67;118.99
67186;HTU21D;54116;53.518;49.398;2023-05-07T10:06:32;-5.40;118.99
67186;HTU21D;54116;53.518;49.398;2023-05-07T10:08:58;-5.25;118.99
67186;HTU21D;54116;53.518;49.398;2023-05-07T10:11:25;-5.48;118.99
67186;HTU21D;54116;53.518;49.398;2023-05-07T10:13:52;-5.73;118.99
67186;HTU21D;54116;53.518;49.398;2023-05-07T10:16:18;-5.35;118.99
67186;HTU21D;54116;53.518;49.398;2023-05-07T10:18:46;-4.91;118.99
67186;HTU21D;54116;53.518;49.398;2023-05-07T10:21:20;-4.84;118.99
67186;HTU21D;54116;53.518;49.398;2023-05-07T10:24:10;-5.00;118.99
67186;HTU21D;54116;53.518;49.398;2023-05-07T10:29:37;-5.37;118.99
67186;HTU21D;54116;53.518;49.398;2023-05-07T10:35:01;-4.76;118.99
67186;HTU21D;54116;53.518;49.398;2023-05-07T10:37:28;-5.02;118.99
67186;HTU21D;54116;53.518;49.398;2023-05-07T10:39:55;-5.11;118.99
67186;HTU21D;54116;53.518;49.398;2023-05-07T10:42:23;-5.17;118.99
67186;HTU21D;54116;53.518;49.398;2023-05-07T10:44:49;-5.22;118.99
67186;HTU21D;54116;53.518;49.398;2023-05-07T10:47:16;-4.93;118.99
67186;HTU21D;54116;53.518;49.398;2023-05-07T10:52:18;-4.72;118.99
67186;HTU21D;54116;53.518;49.398;2023-05-07T10:57:45;-5.60;118.99
67186;HTU21D;54116;53.518;49.398;2023-05-07T11:05:30;-5.71;118.99
67186;HTU21D;54116;53.518;49.398;2023-05-07T11:07:58;-5.07;118.99
67186;HTU21D;54116;53.518;49.398;2023-05-07T11:11:02;-4.94;118.99
67186;HTU21D;54116;53.518;49.398;2023-05-07T11:13:56;-5.57;118.99
67186;HTU21D;54116;53.518;49.398;2023-05-07T11:16:41;-5.96;118.99
67186;HTU21D;54116;53.518;49.398;2023-05-07T11:25:50;-5.41;118.99
67186;HTU21D;54116;53.518;49.398;2023-05-07T11:28:43;-4.85;118.99
67186;HTU21D;54116;53.518;49.398;2023-05-07T11:31:27;-4.54;118.99
67186;HTU21D;54116;53.518;49.398;2023-05-07T11:33:55;-4.70;118.99
67186;HTU21D;54116;53.518;49.398;2023-05-07T11:36:22;-5.07;118.99
67186;HTU21D;54116;53.518;49.398;2023-05-07T11:39:22;-5.08;118.99
67186;HTU21D;54116;53.518;49.398;2023-05-07T11:41:48;-4.98;118.99
67186;HTU21D;54116;53.518;49.398;2023-05-07T11:44:15;-4.95;118.99
67186;HTU21D;54116;53.518;49.398;2023-05-07T11:46:43;-5.31;118.99
67186;HTU21D;54116;53.518;49.398;2023-05-07T11:49:29;-5.09;118.99
67186;HTU21D;54116;53.518;49.398;2023-05-07T11:52:15;-5.15;118.99
67186;HTU21D;54116;53.518;49.398;2023-05-07T11:54:43;-4.87;118.99
67186;HTU21D;54116;53.518;49.398;2023-05-07T11:57:15;-4.96;118.99
67186;HTU21D;54116;53.518;49.398;2023-05-07T11:59:41;-4.70;118.99
67186;HTU21D;54116;53.518;49.398;2023-05-07T12:02:07;-4.63;118.99
67186;HTU21D;54116;53.518;49.398;2023-05-07T12:04:34;-4.37;118.99
67186;HTU21D;54116;53.518;49.398;2023-05-07T12:07:18;-4.25;118.99
67186;HTU21D;54116;53.518;49.398;2023-05-07T12:09:45;-4.64;118.99
67186;HTU21D;54116;53.518;49.398;2023-05-07T12:15:22;-4.57;118.99
67186;HTU21D;54116;53.518;49.398;2023-05-07T12:17:49;-4.54;118.99
67186;HTU21D;54116;53.518;49.398;2023-05-07T12:20:16;-4.41;118.99
67186;HTU21D;54116;53.518;49.398;2023-05-07T12:22:43;-4.39;118.99
67186;HTU21D;54116;53.518;49.398;2023-05-07T12:25:09;-4.59;118.99
67186;HTU21D;54116;53.518;49.398;2023-05-07T12:27:37;-4.67;118.99
67186;HTU21D;54116;53.518;49.398;2023-05-07T12:32:53;-4.70;118.99
67186;HTU21D;54116;53.518;49.398;2023-05-07T12:35:27;-4.95;118.99
67186;HTU21D;54116;53.518;49.398;2023-05-07T12:37:58;-5.28;118.99
67186;HTU21D;54116;53.518;49.398;2023-05-07T12:40:48;-5.47;118.99
67186;HTU21D;54116;53.518;49.398;2023-05-07T12:46:24;-4.73;118.99
67186;HTU21D;54116;53.518;49.398;2023-05-07T12:48:50;-4.70;118.99
67186;HTU21D;54116;53.518;49.398;2023-05-07T12:51:16;-5.18;118.99
67186;HTU21D;54116;53.518;49.398;2023-05-07T12:53:43;-5.61;118.99
67186;HTU21D;54116;53.518;49.398;2023-05-07T12:56:09;-5.35;118.99
67186;HTU21D;54116;53.518;49.398;2023-05-07T12:58:36;-5.14;118.99
67186;HTU21D;54116;53.518;49.398;2023-05-07T13:01:07;-5.10;118.99
67186;HTU21D;54116;53.518;49.398;2023-05-07T13:04:00;-4.73;118.99
67186;HTU21D;54116;53.518;49.398;2023-05-07T13:06:27;-4.76;118.99
67186;HTU21D;54116;53.518;49.398;2023-05-07T13:09:11;-5.10;118.99
67186;HTU21D;54116;53.518;49.398;2023-05-07T13:11:37;-5.13;118.99
67186;HTU21D;54116;53.518;49.398;2023-05-07T13:14:05;-4.98;118.99
67186;HTU21D;54116;53.518;49.398;2023-05-07T13:16:31;-5.09;118.99
67186;HTU21D;54116;53.518;49.398;2023-05-07T13:18:57;-5.22;118.99
67186;HTU21D;54116;53.518;49.398;2023-05-07T13:21:24;-5.22;118.99
67186;HTU21D;54116;53.518;49.398;2023-05-07T13:24:08;-5.20;118.99
67186;HTU21D;54116;53.518;49.398;2023-05-07T13:26:34;-5.17;118.99
67186;HTU21D;54116;53.518;49.398;2023-05-07T13:29:00;-5.19;118.99
67186;HTU21D;54116;53.518;49.398;2023-05-07T13:31:45;-5.30;118.99
67186;HTU21D;54116;53.518;49.398;2023-05-07T13:34:11;-5.45;118.99
67186;HTU21D;54116;53.518;49.398;2023-05-07T13:36:37;-5.73;118.99
67186;HTU21D;54116;53.518;49.398;2023-05-07T13:39:24;-5.79;118.99
67186;HTU21D;54116;53.518;49.398;2023-05-07T13:41:50;-5.70;118.99
67186;HTU21D;54116;53.518;49.398;2023-05-07T13:44:21;-5.79;118.99
67186;HTU21D;54116;53.518;49.398;2023-05-07T13:46:47;-5.70;118.99
67186;HTU21D;54116;53.518;49.398;2023-05-07T13:49:13;-5.32;118.99
67186;HTU21D;54116;53.518;49.398;2023-05-07T13:51:39;-5.22;118.99
67186;HTU21D;54116;53.518;49.398;2023-05-07T13:54:05;-5.22;118.99
67186;HTU21D;54116;53.518;49.398;2023-05-07T13:56:34;-5.37;118.99
67186;HTU21D;54116;53.518;49.398;2023-05-07T13:59:01;-5.28;118.99
67186;HTU21D;54116;53.518;49.398;2023-05-07T14:01:27;-5.16;118.99
67186;HTU21D;54116;53.518;49.398;2023-05-07T14:03:53;-5.07;118.99
67186;HTU21D;54116;53.518;49.398;2023-05-07T14:06:19;-5.20;118.99
67186;HTU21D;54116;53.518;49.398;2023-05-07T14:09:04;-5.30;118.99
67186;HTU21D;54116;53.518;49.398;2023-05-07T14:11:30;-5.34;118.99
67186;HTU21D;54116;53.518;49.398;2023-05-07T14:13:57;-5.41;118.99
67186;HTU21D;54116;53.518;49.398;2023-05-07T14:16:24;-5.39;118.99
67186;HTU21D;54116;53.518;49.398;2023-05-07T14:18:50;-5.17;118.99
67186;HTU21D;54116;53.518;49.398;2023-05-07T14:21:16;-5.33;118.99
67186;HTU21D;54116;53.518;49.398;2023-05-07T14:23:42;-5.48;118.99
67186;HTU21D;54116;53.518;49.398;2023-05-07T14:26:08;-5.63;118.99
67186;HTU21D;54116;53.518;49.398;2023-05-07T14:28:34;-5.68;118.99
67186;HTU21D;54116;53.518;49.398;2023-05-07T14:31:01;-5.70;118.99
67186;HTU21D;54116;53.518;49.398;2023-05-07T14:33:27;-5.71;118.99
67186;HTU21D;54116;53.518;49.398;2023-05-07T14:38:39;-6.13;118.99
67186;HTU21D;54116;53.518;49.398;2023-05-07T14:46:34;-6.15;118.99
67186;HTU21D;54116;53.518;49.398;2023-05-07T14:49:01;-6.19;118.99
67186;HTU21D;54116;53.518;49.398;2023-05-07T14:51:28;-6.16;118.99
67186;HTU21D;54116;53.518;49.398;2023-05-07T14:53:54;-6.22;118.99
67186;HTU21D;54116;53.518;49.398;2023-05-07T14:56:59;-6.30;118.99
67186;HTU21D;54116;53.518;49.398;2023-05-07T15:02:11;-6.26;118.99
67186;HTU21D;54116;53.518;49.398;2023-05-07T15:04:38;-6.32;118.99
67186;HTU21D;54116;53.518;49.398;2023-05-07T15:07:15;-6.33;118.99
67186;HTU21D;54116;53.518;49.398;2023-05-07T15:09:42;-6.39;118.99
67186;HTU21D;54116;53.518;49.398;2023-05-07T15:12:08;-6.53;118.99
67186;HTU21D;54116;53.518;49.398;2023-05-07T15:14:34;-6.63;118.99
67186;HTU21D;54116;53.518;49.398;2023-05-07T15:17:00;-6.72;118.99
67186;HTU21D;54116;53.518;49.398;2023-05-07T15:19:45;-6.63;118.99
67186;HTU21D;54116;53.518;49.398;2023-05-07T15:25:14;-6.62;118.99
67186;HTU21D;54116;53.518;49.398;2023-05-07T15:27:40;-6.62;118.99
67186;HTU21D;54116;53.518;49.398;2023-05-07T15:30:07;-6.80;118.99
67186;HTU21D;54116;53.518;49.398;2023-05-07T15:32:37;-6.81;118.99
67186;HTU21D;54116;53.518;49.398;2023-05-07T15:35:05;-6.83;118.99
67186;HTU21D;54116;53.518;49.398;2023-05-07T15:37:31;-6.90;118.99
67186;HTU21D;54116;53.518;49.398;2023-05-07T15:39:57;-6.90;118.99
67186;HTU21D;54116;53.518;49.398;2023-05-07T15:42:43;-6.92;118.99
67186;HTU21D;54116;53.518;49.398;2023-05-07T15:47:54;-6.97;118.99
67186;HTU21D;54116;53.518;49.398;2023-05-07T15:50:20;-7.03;118.99
67186;HTU21D;54116;53.518;49.398;2023-05-07T15:52:47;-7.12;118.99
67186;HTU21D;54116;53.518;49.398;2023-05-07T15:55:13;-7.25;118.99
67186;HTU21D;54116;53.518;49.398;2023-05-07T15:57:41;-7.26;118.99